Portada
METAR-TAF:

METAR-TAF

Aeroports :

South Bend Regional Airport

South Bend, Indiana, Estats Units d'Amèrica

latitud: 41-42-32N, longitud: 086-19-07W, altitud: 244 m

Observació

L'informe es va fer fa 47 minuts, a les 01:54 UTC
Vent calma
Temperatura 22°C
Humitat 94%
Pressió 1014 hPa
Visibilitat: 16.1 km
Cel ennuvolat a una alçada de 4800 ft
Cel ennuvolat a una alçada de 6000 ft

METAR: KSBN 280154Z AUTO 00000KT 10SM BKN048 BKN060 22/21 A2994 RMK AO2 SLP132 T02220206

Hora: 22:41 (02:41 UTC)

Pronòstic

L'informe es va fer fa 3 hores i 21 minuts, a les 23:20 UTC
Pronòstic vàlid del 28 a les 00 UTC al 28 a les 24 UTC
Vent 5 kt del Sud
Visibilitat: 10 km
Cel ennuvolat a una alçada de 7000 ft
A partir de les 28 a les 1800 UTC
Vent 7 kt del Sud
Visibilitat: 10 km
Cel ennuvolat a una alçada de 4000 ft
xàfecs en les proximitats

TAF: KSBN 272320Z 2800/2824 18005KT P6SM BKN070 FM281800 19007KT P6SM VCSH BKN040

Observacions i pronòstics meteorològics de més de 4000 aeroports (METAR i TAF).

Les estacions disponibles són els punts grocs i vermells al mapa.

Posi el ratolí al punt desitjat per veure el nom de l'estació.

Feu clic per veure les observacions i els pronòstics meteorològics.

Per canviar el mapa: feu clic els botons verds amb una creu de color negre per apropar; al botó verd amb un guió per allunyar la imatge; o en les fletxes verdes per a mapes adjacents.


METAR-TAF: